createdAt,value
2023-05-08T00:01:05.235Z,100880.07
2023-05-08T00:03:32.140Z,100879.02
2023-05-08T00:05:59.383Z,100881.54
2023-05-08T00:08:26.542Z,100878.04
2023-05-08T00:10:53.501Z,100878.23
2023-05-08T00:13:20.482Z,100876.81
2023-05-08T00:15:47.737Z,100879.84
2023-05-08T00:18:14.607Z,100876.66
2023-05-08T00:20:42.037Z,100871.86
2023-05-08T00:23:08.826Z,100874.90
2023-05-08T00:25:35.837Z,100872.03
2023-05-08T00:28:02.743Z,100872.40
2023-05-08T00:32:21.730Z,100879.54
2023-05-08T00:34:48.574Z,100866.95
2023-05-08T00:37:15.316Z,100866.39
2023-05-08T00:39:42.118Z,100868.50
2023-05-08T00:42:09.412Z,100864.98
2023-05-08T00:44:39.041Z,100866.23
2023-05-08T00:47:06.935Z,100877.23
2023-05-08T00:49:35.381Z,100873.88
2023-05-08T00:52:02.730Z,100882.21
2023-05-08T00:54:30.004Z,100881.50
2023-05-08T00:56:57.597Z,100882.05
2023-05-08T00:59:24.620Z,100880.46
2023-05-08T01:01:51.478Z,100882.95
2023-05-08T01:04:24.043Z,100884.19
2023-05-08T01:06:50.967Z,100889.33
2023-05-08T01:09:17.672Z,100888.98
2023-05-08T01:12:03.077Z,100888.98
2023-05-08T01:15:05.200Z,100891.46
2023-05-08T01:17:50.660Z,100894.46
2023-05-08T01:21:02.673Z,100897.12
2023-05-08T01:23:48.528Z,100895.70
2023-05-08T01:26:52.694Z,100899.79
2023-05-08T01:29:35.827Z,100905.46
2023-05-08T01:32:22.190Z,100907.23
2023-05-08T01:35:03.386Z,100909.02
2023-05-08T01:37:55.123Z,100912.02
2023-05-08T01:40:22.682Z,100904.92
2023-05-08T01:42:53.317Z,100906.70
2023-05-08T01:45:26.396Z,100900.14
2023-05-08T01:48:03.185Z,100904.06
2023-05-08T01:50:35.416Z,100904.23
2023-05-08T01:53:08.875Z,100901.77
2023-05-08T01:55:37.020Z,100906.36
2023-05-08T01:58:06.804Z,100904.25
2023-05-08T02:00:33.535Z,100909.40
2023-05-08T02:03:01.194Z,100917.36
2023-05-08T02:05:28.196Z,100913.45
2023-05-08T02:07:55.030Z,100926.23
2023-05-08T02:10:22.384Z,100927.48
2023-05-08T02:12:50.595Z,100929.25
2023-05-08T02:15:17.420Z,100932.61
2023-05-08T02:17:46.253Z,100934.92
2023-05-08T02:20:14.561Z,100938.13
2023-05-08T02:22:43.111Z,100940.07
2023-05-08T02:25:13.908Z,100939.18
2023-05-08T02:27:43.567Z,100949.09
2023-05-08T02:30:14.354Z,100945.72
2023-05-08T02:32:45.376Z,100948.40
2023-05-08T02:35:16.644Z,100946.27
2023-05-08T02:37:44.951Z,100950.16
2023-05-08T02:40:12.746Z,100953.00
2023-05-08T02:42:40.317Z,100953.36
2023-05-08T02:45:08.252Z,100950.70
2023-05-08T02:47:50.582Z,100958.49
2023-05-08T02:50:59.947Z,100959.02
2023-05-08T02:53:38.634Z,100959.90
2023-05-08T02:56:10.686Z,100969.13
2023-05-08T02:58:44.138Z,100972.49
2023-05-08T03:01:16.520Z,100973.92
2023-05-08T03:04:09.302Z,100973.57
2023-05-08T03:06:40.558Z,100978.52
2023-05-08T03:09:10.359Z,100984.56
2023-05-08T03:11:40.349Z,100989.69
2023-05-08T03:14:11.023Z,100997.67
2023-05-08T03:16:39.172Z,100989.52
2023-05-08T03:19:16.266Z,100998.21
2023-05-08T03:21:43.164Z,101003.54
2023-05-08T03:24:10.580Z,101006.02
2023-05-08T03:26:38.001Z,101006.89
2023-05-08T03:29:04.797Z,101001.40
2023-05-08T03:31:32.919Z,101006.55
2023-05-08T03:34:00.575Z,101009.73
2023-05-08T03:36:28.361Z,101011.67
2023-05-08T03:38:55.287Z,101010.44
2023-05-08T03:41:24.796Z,101016.11
2023-05-08T03:43:52.053Z,101018.05
2023-05-08T03:46:19.007Z,101013.27
2023-05-08T03:48:45.773Z,101010.80
2023-05-08T03:51:12.990Z,101020.36
2023-05-08T03:53:40.547Z,101023.38
2023-05-08T03:56:07.715Z,101024.08
2023-05-08T03:58:46.371Z,101027.81
2023-05-08T04:01:36.035Z,101029.41
2023-05-08T04:04:03.112Z,101035.09
2023-05-08T04:06:48.699Z,101033.66
2023-05-08T04:09:24.389Z,101036.33
2023-05-08T04:12:04.777Z,101039.34
2023-05-08T04:14:36.247Z,101040.58
2023-05-08T04:17:05.569Z,101042.71
2023-05-08T04:19:33.640Z,101041.45
2023-05-08T04:22:05.354Z,101040.92
2023-05-08T04:24:34.884Z,101042.70
2023-05-08T04:27:02.380Z,101047.50
2023-05-08T04:29:30.517Z,101044.67
2023-05-08T04:31:57.546Z,101041.47
2023-05-08T04:34:24.964Z,101039.16
2023-05-08T04:36:52.249Z,101044.83
2023-05-08T04:39:19.599Z,101045.19
2023-05-08T04:41:48.300Z,101045.91
2023-05-08T04:44:15.959Z,101046.63
2023-05-08T04:46:42.919Z,101050.16
2023-05-08T04:49:09.790Z,101055.67
2023-05-08T04:51:36.655Z,101050.70
2023-05-08T04:54:03.536Z,101050.35
2023-05-08T04:56:31.416Z,101055.15
2023-05-08T04:58:58.286Z,101057.08
2023-05-08T05:01:25.460Z,101054.77
2023-05-08T05:03:52.621Z,101056.02
2023-05-08T05:06:20.320Z,101064.73
2023-05-08T05:08:47.672Z,101065.06
2023-05-08T05:11:15.552Z,101066.84
2023-05-08T05:13:42.897Z,101065.59
2023-05-08T05:16:10.032Z,101068.61
2023-05-08T05:18:37.431Z,101067.35
2023-05-08T05:21:04.261Z,101072.13
2023-05-08T05:23:31.812Z,101074.77
2023-05-08T05:26:00.112Z,101064.98
2023-05-08T05:28:27.787Z,101069.21
2023-05-08T05:30:54.718Z,101066.11
2023-05-08T05:33:21.644Z,101067.09
2023-05-08T05:35:48.748Z,101070.05
2023-05-08T05:38:15.638Z,101069.10
2023-05-08T05:40:42.789Z,101058.88
2023-05-08T05:43:09.657Z,101067.66
2023-05-08T05:45:36.683Z,101063.79
2023-05-08T05:48:04.370Z,101070.19
2023-05-08T05:50:32.108Z,101073.18
2023-05-08T05:52:59.245Z,101070.09
2023-05-08T05:55:26.311Z,101057.52
2023-05-08T05:57:53.569Z,101054.64
2023-05-08T06:00:21.380Z,101050.06
2023-05-08T06:02:50.212Z,101047.59
2023-05-08T06:05:19.216Z,101044.40
2023-05-08T06:07:46.295Z,101048.63
2023-05-08T06:10:13.240Z,101044.96
2023-05-08T06:12:40.903Z,101046.70
2023-05-08T06:15:09.278Z,101045.52
2023-05-08T06:17:36.416Z,101033.45
2023-05-08T06:20:03.841Z,101034.79
2023-05-08T06:22:31.230Z,101044.82
2023-05-08T06:24:58.080Z,101035.45
2023-05-08T06:27:25.502Z,101046.12
2023-05-08T06:29:55.161Z,101042.33
2023-05-08T06:32:22.079Z,101041.91
2023-05-08T06:34:49.461Z,101041.45
2023-05-08T06:37:16.177Z,101047.92
2023-05-08T06:39:43.121Z,101048.36
2023-05-08T06:42:09.973Z,101054.17
2023-05-08T06:44:40.764Z,101057.27
2023-05-08T06:47:08.068Z,101058.88
2023-05-08T06:49:36.142Z,101056.39
2023-05-08T06:52:03.125Z,101052.55
2023-05-08T06:54:30.236Z,101057.34
2023-05-08T06:56:57.269Z,101047.42
2023-05-08T06:59:24.360Z,101045.58
2023-05-08T07:01:51.306Z,101051.13
2023-05-08T07:04:18.261Z,101047.65
2023-05-08T07:06:45.090Z,101049.95
2023-05-08T07:09:12.528Z,101046.77
2023-05-08T07:11:39.594Z,101049.43
2023-05-08T07:14:06.477Z,101061.59
2023-05-08T07:16:33.606Z,101054.89
2023-05-08T07:19:00.646Z,101054.16
2023-05-08T07:21:28.983Z,101056.51
2023-05-08T07:23:55.898Z,101060.11
2023-05-08T07:26:22.869Z,101051.64
2023-05-08T07:28:50.976Z,101043.69
2023-05-08T07:31:17.931Z,101042.34
2023-05-08T07:33:46.153Z,101047.29
2023-05-08T07:36:13.440Z,101052.33
2023-05-08T07:38:40.594Z,101048.61
2023-05-08T07:41:07.892Z,101049.25
2023-05-08T07:43:35.188Z,101050.27
2023-05-08T07:46:02.298Z,101057.09
2023-05-08T07:48:30.645Z,101061.02
2023-05-08T07:50:57.606Z,101066.08
2023-05-08T07:53:24.635Z,101050.06
2023-05-08T07:55:52.258Z,101051.63
2023-05-08T07:58:19.343Z,101060.49
2023-05-08T08:00:46.388Z,101050.75
2023-05-08T08:03:13.455Z,101048.33
2023-05-08T08:05:41.571Z,101058.61
2023-05-08T08:08:08.718Z,101056.03
2023-05-08T08:10:35.629Z,101051.90
2023-05-08T08:13:02.793Z,101048.30
2023-05-08T08:15:30.217Z,101052.21
2023-05-08T08:17:57.706Z,101046.39
2023-05-08T08:20:24.591Z,101041.15
2023-05-08T08:22:51.840Z,101040.40
2023-05-08T08:25:18.709Z,101065.51
2023-05-08T08:27:45.880Z,101061.08
2023-05-08T08:30:18.230Z,101052.98
2023-05-08T08:32:46.040Z,101042.98
2023-05-08T08:35:13.387Z,101053.52
2023-05-08T08:37:41.232Z,101046.65
2023-05-08T08:40:08.832Z,101041.30
2023-05-08T08:42:35.794Z,101035.50
2023-05-08T08:45:03.515Z,101038.11
2023-05-08T08:47:36.969Z,101042.33
2023-05-08T08:50:04.791Z,101044.43
2023-05-08T08:52:51.749Z,101042.87
2023-05-08T08:55:18.608Z,101042.89
2023-05-08T08:57:54.511Z,101048.95
2023-05-08T09:00:22.833Z,101044.08
2023-05-08T09:02:49.900Z,101038.34
2023-05-08T09:05:17.580Z,101036.92
2023-05-08T09:07:44.851Z,101030.97
2023-05-08T09:10:15.010Z,101029.43
2023-05-08T09:12:45.239Z,101028.20
2023-05-08T09:15:12.764Z,101026.90
2023-05-08T09:17:40.612Z,101024.29
2023-05-08T09:20:10.302Z,101020.98
2023-05-08T09:22:38.881Z,101030.86
2023-05-08T09:25:06.569Z,101025.23
2023-05-08T09:27:35.897Z,101031.33
2023-05-08T09:30:07.696Z,101015.91
2023-05-08T09:32:36.794Z,101025.63
2023-05-08T09:35:04.713Z,101022.05
2023-05-08T09:37:31.691Z,101018.82
2023-05-08T09:40:15.302Z,101017.75
2023-05-08T09:42:43.253Z,101018.34
2023-05-08T09:45:11.014Z,101027.00
2023-05-08T09:47:38.958Z,101019.98
2023-05-08T09:50:10.589Z,101018.20
2023-05-08T09:52:38.175Z,101026.18
2023-05-08T09:55:10.011Z,101030.59
2023-05-08T09:57:38.818Z,101020.87
2023-05-08T10:00:12.346Z,101025.34
2023-05-08T10:02:41.443Z,101027.63
2023-05-08T10:05:46.773Z,101017.64
2023-05-08T10:08:21.475Z,101016.33
2023-05-08T10:10:48.614Z,101009.83
2023-05-08T10:13:15.782Z,101013.70
2023-05-08T10:15:43.139Z,101012.61
2023-05-08T10:18:14.035Z,101006.38
2023-05-08T10:20:43.706Z,100996.21
2023-05-08T10:23:14.077Z,101001.83
2023-05-08T10:25:44.437Z,101002.91
2023-05-08T10:28:17.491Z,101011.46
2023-05-08T10:30:47.979Z,101010.02
2023-05-08T10:33:17.472Z,101002.89
2023-05-08T10:35:44.954Z,101007.28
2023-05-08T10:38:11.790Z,101009.71
2023-05-08T10:40:38.870Z,101011.09
2023-05-08T10:43:06.754Z,101011.36
2023-05-08T10:45:33.706Z,101012.27
2023-05-08T10:48:06.901Z,101004.98
2023-05-08T10:50:43.979Z,101008.59
2023-05-08T10:53:40.518Z,101011.23
2023-05-08T10:56:07.468Z,101015.20
2023-05-08T10:58:41.182Z,101018.84
2023-05-08T11:01:08.374Z,101007.27
2023-05-08T11:03:55.037Z,101015.90
2023-05-08T11:06:43.301Z,101018.27
2023-05-08T11:09:15.448Z,101023.13
2023-05-08T11:11:45.291Z,101019.48
2023-05-08T11:14:13.671Z,101013.96
2023-05-08T11:16:52.982Z,101019.45
2023-05-08T11:19:24.279Z,101018.91
2023-05-08T11:22:10.427Z,101026.36
2023-05-08T11:24:57.644Z,101029.12
2023-05-08T11:27:39.073Z,101018.77
2023-05-08T11:30:35.575Z,101019.29
2023-05-08T11:33:02.605Z,101023.64
2023-05-08T11:35:53.452Z,101014.27
2023-05-08T11:38:27.765Z,101013.27
2023-05-08T11:40:55.630Z,101007.30
2023-05-08T11:43:37.851Z,101016.02
2023-05-08T11:46:07.873Z,101015.18
2023-05-08T11:48:35.268Z,101007.27
2023-05-08T11:51:02.739Z,101014.96
2023-05-08T11:53:30.868Z,101009.41
2023-05-08T11:55:58.696Z,101007.60
2023-05-08T11:58:25.649Z,100997.52
2023-05-08T12:00:52.704Z,100996.46
2023-05-08T12:03:21.686Z,100998.89
2023-05-08T12:05:49.244Z,101002.52
2023-05-08T12:08:17.550Z,101001.09
2023-05-08T12:10:51.507Z,100997.88
2023-05-08T12:13:29.089Z,100997.47
2023-05-08T12:15:58.246Z,101004.22
2023-05-08T12:18:26.258Z,100999.34
2023-05-08T12:20:56.511Z,100997.83
2023-05-08T12:23:25.343Z,100995.14
2023-05-08T12:25:55.682Z,101001.45
2023-05-08T12:28:22.627Z,101001.84
2023-05-08T12:30:49.640Z,100997.56
2023-05-08T12:33:16.718Z,100996.92
2023-05-08T12:35:43.952Z,100995.48
2023-05-08T12:38:11.638Z,100997.52
2023-05-08T12:40:45.892Z,100988.27
2023-05-08T12:43:12.916Z,101001.19
2023-05-08T12:45:41.371Z,100987.60
2023-05-08T12:49:49.453Z,100993.30
2023-05-08T12:52:18.375Z,100992.96
2023-05-08T12:54:49.486Z,100984.49
2023-05-08T12:57:17.674Z,100988.70
2023-05-08T12:59:45.090Z,100984.84
2023-05-08T13:02:23.851Z,100986.75
2023-05-08T13:04:55.555Z,100982.64
2023-05-08T13:07:22.893Z,100984.23
2023-05-08T13:10:01.246Z,100979.03
2023-05-08T13:12:28.234Z,100976.00
2023-05-08T13:14:55.252Z,100983.18
2023-05-08T13:17:22.185Z,100974.03
2023-05-08T13:19:49.713Z,100977.61
2023-05-08T13:22:16.577Z,100983.59
2023-05-08T13:24:43.526Z,100981.80
2023-05-08T13:27:10.439Z,100981.91
2023-05-08T13:29:37.708Z,100983.16
2023-05-08T13:32:04.742Z,100979.70
2023-05-08T13:34:31.691Z,100970.13
2023-05-08T13:36:58.766Z,100985.14
2023-05-08T13:39:25.767Z,100990.37
2023-05-08T13:41:52.646Z,100980.90
2023-05-08T13:44:19.710Z,100986.59
2023-05-08T13:46:47.139Z,100982.98
2023-05-08T13:49:14.307Z,100985.49
2023-05-08T13:51:42.678Z,100991.32
2023-05-08T13:54:12.748Z,100989.67
2023-05-08T13:56:40.425Z,100985.61
2023-05-08T13:59:07.750Z,100987.71
2023-05-08T14:01:34.642Z,100985.97
2023-05-08T14:04:02.153Z,100989.77
2023-05-08T14:06:29.674Z,100990.90
2023-05-08T14:08:57.294Z,100981.60
2023-05-08T14:11:24.707Z,100986.34
2023-05-08T14:13:51.668Z,100987.43
2023-05-08T14:16:18.838Z,100983.86
2023-05-08T14:18:45.911Z,100978.91
2023-05-08T14:21:12.816Z,100983.83
2023-05-08T14:23:39.824Z,100983.11
2023-05-08T14:26:06.908Z,100987.17
2023-05-08T14:28:33.942Z,100983.15
2023-05-08T14:31:00.969Z,100980.64
2023-05-08T14:33:27.954Z,100988.45
2023-05-08T14:35:55.012Z,100989.91
2023-05-08T14:38:22.004Z,100992.02
2023-05-08T14:40:51.991Z,100989.94
2023-05-08T14:43:18.907Z,100989.48
2023-05-08T14:45:45.822Z,100981.40
2023-05-08T14:48:12.813Z,100984.44
2023-05-08T14:50:39.712Z,100979.14
2023-05-08T14:53:07.676Z,100987.25
2023-05-08T14:55:35.018Z,100989.42
2023-05-08T14:58:02.328Z,100987.54
2023-05-08T15:00:29.291Z,100989.10
2023-05-08T15:02:56.396Z,100991.88
2023-05-08T15:05:23.651Z,100990.73
2023-05-08T15:07:51.055Z,100993.15
2023-05-08T15:10:18.066Z,100993.57
2023-05-08T15:12:44.997Z,100988.80
2023-05-08T15:15:12.309Z,100988.92
2023-05-08T15:17:41.658Z,100993.35
2023-05-08T15:20:09.540Z,100996.70
2023-05-08T15:22:37.250Z,100995.00
2023-05-08T15:25:05.587Z,100996.02
2023-05-08T15:27:32.659Z,100999.16
2023-05-08T15:29:59.766Z,100999.98
2023-05-08T15:32:26.813Z,100996.09
2023-05-08T15:34:53.884Z,100997.61
2023-05-08T15:37:20.836Z,100998.10
2023-05-08T15:39:47.912Z,100997.09
2023-05-08T15:42:14.895Z,100996.08
2023-05-08T15:44:54.763Z,100996.70
2023-05-08T15:47:23.534Z,100996.13
2023-05-08T15:49:51.156Z,101000.21
2023-05-08T15:52:19.915Z,100993.58
2023-05-08T15:54:47.452Z,100994.70
2023-05-08T15:57:14.399Z,100991.86
2023-05-08T15:59:41.737Z,100990.30
2023-05-08T16:02:08.790Z,100989.52
2023-05-08T16:11:48.596Z,101000.71
2023-05-08T16:14:16.452Z,100995.95
2023-05-08T16:16:43.975Z,101003.82
2023-05-08T16:19:10.981Z,100998.68
2023-05-08T16:21:38.083Z,101008.16
2023-05-08T16:24:05.515Z,101005.85
2023-05-08T16:26:33.148Z,101004.04
2023-05-08T16:29:00.071Z,101004.63
2023-05-08T16:31:27.170Z,101003.13
2023-05-08T16:33:54.258Z,101003.42
2023-05-08T16:36:21.309Z,101002.64
2023-05-08T16:38:48.224Z,101008.74
2023-05-08T16:41:15.190Z,101006.48
2023-05-08T16:43:42.120Z,101011.92
2023-05-08T16:46:09.197Z,101015.02
2023-05-08T16:48:36.608Z,101016.67
2023-05-08T16:51:03.431Z,101018.15
2023-05-08T16:53:31.920Z,101020.37
2023-05-08T16:55:58.853Z,101024.52
2023-05-08T16:58:27.172Z,101025.65
2023-05-08T17:00:54.023Z,101034.96
2023-05-08T17:03:21.191Z,101030.52
2023-05-08T17:05:48.636Z,101034.10
2023-05-08T17:08:15.801Z,101036.83
2023-05-08T17:10:42.838Z,101042.40
2023-05-08T17:13:09.875Z,101049.95
2023-05-08T17:15:37.034Z,101048.18
2023-05-08T17:18:04.128Z,101048.20
2023-05-08T17:20:31.331Z,101051.23
2023-05-08T17:22:58.188Z,101049.33
2023-05-08T17:25:25.333Z,101048.71
2023-05-08T17:27:52.423Z,101060.92
2023-05-08T17:30:19.315Z,101066.36
2023-05-08T17:32:51.253Z,101065.34
2023-05-08T17:35:18.686Z,101070.55
2023-05-08T17:37:45.798Z,101070.23
2023-05-08T17:40:13.181Z,101071.37
2023-05-08T17:42:40.333Z,101076.98
2023-05-08T17:45:07.631Z,101077.41
2023-05-08T17:47:34.646Z,101083.48
2023-05-08T17:50:01.549Z,101085.44
2023-05-08T17:52:28.497Z,101090.25
2023-05-08T17:54:55.315Z,101092.04
2023-05-08T17:57:22.092Z,101097.09
2023-05-08T17:59:48.928Z,101097.31
2023-05-08T18:02:15.715Z,101104.64
2023-05-08T18:04:42.652Z,101105.02
2023-05-08T18:07:10.817Z,101104.37
2023-05-08T18:09:37.734Z,101109.58
2023-05-08T18:12:05.816Z,101107.66
2023-05-08T18:14:32.880Z,101114.48
2023-05-08T18:17:00.014Z,101117.38
2023-05-08T18:19:26.892Z,101120.77
2023-05-08T18:21:53.978Z,101115.45
2023-05-08T18:24:20.778Z,101114.25
2023-05-08T18:26:48.569Z,101118.19
2023-05-08T18:29:16.643Z,101120.88
2023-05-08T18:31:43.559Z,101125.36
2023-05-08T18:34:10.614Z,101118.64
2023-05-08T18:36:37.640Z,101125.79
2023-05-08T18:39:04.583Z,101126.51
2023-05-08T18:41:32.158Z,101125.09
2023-05-08T18:44:05.272Z,101129.23
2023-05-08T18:46:32.394Z,101127.99
2023-05-08T18:48:59.324Z,101130.00
2023-05-08T18:51:26.473Z,101131.98
2023-05-08T18:53:53.549Z,101132.17
2023-05-08T18:56:20.883Z,101134.34
2023-05-08T18:58:47.753Z,101134.55
2023-05-08T19:01:19.320Z,101136.70
2023-05-08T19:03:47.665Z,101139.41
2023-05-08T19:06:14.703Z,101137.98
2023-05-08T19:08:42.030Z,101138.17
2023-05-08T19:11:09.832Z,101139.08
2023-05-08T19:13:37.098Z,101136.42
2023-05-08T19:16:04.703Z,101140.70
2023-05-08T19:18:32.979Z,101146.26
2023-05-08T19:21:01.484Z,101145.20
2023-05-08T19:23:28.568Z,101147.54
2023-05-08T19:25:55.430Z,101144.89
2023-05-08T19:28:22.380Z,101145.61
2023-05-08T19:30:49.162Z,101149.17
2023-05-08T19:33:20.034Z,101151.33
2023-05-08T19:35:47.542Z,101150.44
2023-05-08T19:38:14.790Z,101152.77
2023-05-08T19:40:55.751Z,101149.94
2023-05-08T19:43:27.174Z,101148.17
2023-05-08T19:45:54.716Z,101155.08
2023-05-08T19:48:22.245Z,101151.20
2023-05-08T19:50:49.938Z,101149.44
2023-05-08T19:53:17.809Z,101156.02
2023-05-08T19:55:44.806Z,101156.02
2023-05-08T19:58:14.171Z,101155.86
2023-05-08T20:00:41.024Z,101152.31
2023-05-08T20:03:07.956Z,101154.09
2023-05-08T20:05:35.013Z,101159.27
2023-05-08T20:08:02.182Z,101156.40
2023-05-08T20:10:29.420Z,101156.25
2023-05-08T20:12:56.281Z,101154.64
2023-05-08T20:15:23.229Z,101154.13
2023-05-08T20:17:50.407Z,101155.90
2023-05-08T20:20:17.411Z,101153.24
2023-05-08T20:22:44.676Z,101155.02
2023-05-08T20:25:11.607Z,101154.84
2023-05-08T20:27:38.971Z,101155.90
2023-05-08T20:30:06.232Z,101153.23
2023-05-08T20:32:33.526Z,101149.51
2023-05-08T20:35:02.640Z,101150.39
2023-05-08T20:37:29.668Z,101148.97
2023-05-08T20:39:57.572Z,101155.01
2023-05-08T20:42:24.525Z,101153.24
2023-05-08T20:44:51.359Z,101154.15
2023-05-08T20:47:18.075Z,101152.72
2023-05-08T20:49:44.864Z,101153.95
2023-05-08T20:52:11.585Z,101152.55
2023-05-08T20:54:38.335Z,101149.17
2023-05-08T20:57:05.078Z,101153.80
2023-05-08T20:59:32.395Z,101151.67
2023-05-08T21:01:59.481Z,101153.43
2023-05-08T21:04:26.650Z,101154.31
2023-05-08T21:06:53.313Z,101155.58
2023-05-08T21:09:20.307Z,101157.88
2023-05-08T21:11:46.997Z,101161.08
2023-05-08T21:14:13.893Z,101156.81
2023-05-08T21:16:40.741Z,101156.45
2023-05-08T21:19:09.177Z,101156.28
2023-05-08T21:21:35.871Z,101162.14
2023-05-08T21:24:03.367Z,101162.66
2023-05-08T21:26:30.148Z,101166.41
2023-05-08T21:28:58.036Z,101163.20
2023-05-08T21:31:24.788Z,101163.38
2023-05-08T21:33:51.455Z,101165.50
2023-05-08T21:36:18.131Z,101160.72
2023-05-08T21:38:44.860Z,101163.02
2023-05-08T21:41:11.500Z,101158.41
2023-05-08T21:43:38.337Z,101160.18
2023-05-08T21:46:05.768Z,101160.89
2023-05-08T21:48:33.347Z,101158.41
2023-05-08T21:51:00.003Z,101158.41
2023-05-08T21:53:26.725Z,101158.77
2023-05-08T21:55:53.504Z,101156.26
2023-05-08T21:58:21.660Z,101154.10
2023-05-08T22:00:48.337Z,101150.19
2023-05-08T22:03:15.304Z,101149.30
2023-05-08T22:05:42.182Z,101148.77
2023-05-08T22:08:09.382Z,101145.58
2023-05-08T22:10:36.262Z,101145.55
2023-05-08T22:13:03.085Z,101147.33
2023-05-08T22:15:31.032Z,101145.02
2023-05-08T22:17:58.356Z,101145.54
2023-05-08T22:20:25.237Z,101143.75
2023-05-08T22:22:51.968Z,101143.56
2023-05-08T22:25:20.928Z,101149.41
2023-05-08T22:27:47.855Z,101146.73
2023-05-08T22:30:14.822Z,101145.69
2023-05-08T22:32:42.085Z,101147.63
2023-05-08T22:35:08.842Z,101152.23
2023-05-08T22:37:36.262Z,101151.69
2023-05-08T22:40:03.457Z,101148.83
2023-05-08T22:42:30.412Z,101153.59
2023-05-08T22:44:57.304Z,101149.66
2023-05-08T22:47:25.280Z,101147.52
2023-05-08T22:49:52.015Z,101147.01
2023-05-08T22:52:18.676Z,101148.61
2023-05-08T22:54:45.553Z,101145.44
2023-05-08T22:57:13.563Z,101145.80
2023-05-08T22:59:40.400Z,101145.47
2023-05-08T23:02:07.237Z,101141.04
2023-05-08T23:04:34.445Z,101142.27
2023-05-08T23:07:01.536Z,101143.34
2023-05-08T23:09:30.108Z,101141.19
2023-05-08T23:11:56.799Z,101141.35
2023-05-08T23:14:23.480Z,101144.84
2023-05-08T23:16:50.482Z,101143.40
2023-05-08T23:19:17.157Z,101146.02
2023-05-08T23:21:43.882Z,101148.94
2023-05-08T23:24:10.526Z,101148.02
2023-05-08T23:26:37.334Z,101154.16
2023-05-08T23:29:03.891Z,101152.38
2023-05-08T23:31:31.208Z,101151.29
2023-05-08T23:33:57.901Z,101152.34
2023-05-08T23:36:24.552Z,101151.31
2023-05-08T23:38:51.113Z,101149.00
2023-05-08T23:41:18.071Z,101150.58
2023-05-08T23:43:44.628Z,101152.51
2023-05-08T23:46:11.310Z,101151.42
2023-05-08T23:48:37.957Z,101153.67
2023-05-08T23:51:04.640Z,101152.63
2023-05-08T23:53:31.983Z,101147.34
2023-05-08T23:55:58.612Z,101149.48
2023-05-08T23:58:25.680Z,101150.20
